createdAt,value
2022-11-22T00:00:34.514Z,179.00
2022-11-22T00:05:36.654Z,175.60
2022-11-22T00:10:38.470Z,181.50
2022-11-22T00:15:40.268Z,199.20
2022-11-22T00:20:42.002Z,166.70
2022-11-22T00:30:46.785Z,191.70
2022-11-22T00:35:48.547Z,220.50
2022-11-22T00:40:50.356Z,222.10
2022-11-22T00:45:52.143Z,278.40
2022-11-22T00:50:54.181Z,366.70
2022-11-22T00:55:55.949Z,358.60
2022-11-22T01:00:57.693Z,228.10
2022-11-22T01:05:59.553Z,224.70
2022-11-22T01:11:01.725Z,172.90
2022-11-22T01:16:06.889Z,166.80
2022-11-22T01:21:08.914Z,152.90
2022-11-22T01:26:12.538Z,135.20
2022-11-22T01:31:14.283Z,142.70
2022-11-22T01:36:16.125Z,157.60
2022-11-22T01:41:18.056Z,156.50
2022-11-22T01:46:39.550Z,153.30
2022-11-22T01:51:44.399Z,312.40
2022-11-22T01:56:50.956Z,164.50
2022-11-22T02:01:54.116Z,126.30
2022-11-22T02:07:07.087Z,132.30
2022-11-22T02:12:11.170Z,129.10
2022-11-22T02:17:13.224Z,127.80
2022-11-22T02:22:36.551Z,110.00
2022-11-22T02:27:38.599Z,131.80
2022-11-22T02:32:40.365Z,124.20
2022-11-22T02:37:42.718Z,107.60
2022-11-22T02:42:49.301Z,106.10
2022-11-22T02:47:51.176Z,117.90
2022-11-22T02:52:52.944Z,114.00
2022-11-22T02:57:55.046Z,118.50
2022-11-22T03:02:56.827Z,115.40
2022-11-22T03:18:04.376Z,84.10
2022-11-22T03:23:06.113Z,111.80
2022-11-22T03:28:08.078Z,101.50
2022-11-22T03:33:10.012Z,93.40
2022-11-22T03:38:11.834Z,94.30
2022-11-22T03:48:15.473Z,81.70
2022-11-22T03:53:17.175Z,78.60
2022-11-22T04:08:22.731Z,86.80
2022-11-22T04:13:44.483Z,88.60
2022-11-22T04:18:46.267Z,74.60
2022-11-22T04:24:07.962Z,76.30
2022-11-22T04:34:12.617Z,91.80
2022-11-22T04:39:15.605Z,91.80
2022-11-22T04:44:36.022Z,94.50
2022-11-22T04:49:37.972Z,99.50
2022-11-22T04:54:39.704Z,95.00
2022-11-22T05:04:46.332Z,90.70
2022-11-22T05:09:52.071Z,100.50
2022-11-22T05:19:55.544Z,104.60
2022-11-22T05:24:57.285Z,87.30
2022-11-22T05:35:00.790Z,103.30
2022-11-22T05:40:03.073Z,101.80
2022-11-22T05:45:05.296Z,89.10
2022-11-22T05:50:07.395Z,103.70
2022-11-22T05:55:09.486Z,105.50
2022-11-22T06:00:11.624Z,111.50
2022-11-22T06:05:16.292Z,117.40
2022-11-22T06:10:18.026Z,93.40
2022-11-22T06:20:21.844Z,128.10
2022-11-22T06:25:23.649Z,101.50
2022-11-22T06:30:25.441Z,107.80
2022-11-22T06:35:27.211Z,99.70
2022-11-22T06:40:28.952Z,104.40
2022-11-22T06:45:30.753Z,99.00
2022-11-22T06:50:32.548Z,106.50
2022-11-22T06:55:50.309Z,123.00
2022-11-22T07:00:52.997Z,120.50
2022-11-22T07:05:55.489Z,128.10
2022-11-22T07:11:04.554Z,126.70
2022-11-22T07:16:10.054Z,123.90
2022-11-22T07:21:14.458Z,125.60
2022-11-22T07:26:18.516Z,132.00
2022-11-22T07:31:20.990Z,228.20
2022-11-22T07:36:23.349Z,148.20
2022-11-22T07:41:25.256Z,114.30
2022-11-22T07:46:31.651Z,114.80
2022-11-22T07:51:33.801Z,106.90
2022-11-22T07:56:35.690Z,108.30
2022-11-22T08:01:37.648Z,91.90
2022-11-22T08:06:39.609Z,94.40
2022-11-22T08:11:41.390Z,102.70
2022-11-22T08:26:47.629Z,98.80
2022-11-22T08:31:49.872Z,109.00
2022-11-22T08:36:52.209Z,89.60
2022-11-22T08:41:55.559Z,89.70
2022-11-22T08:46:57.267Z,88.50
2022-11-22T08:57:00.693Z,145.10
2022-11-22T09:02:03.188Z,88.60
2022-11-22T09:12:26.983Z,92.60
2022-11-22T09:17:28.796Z,84.20
2022-11-22T09:22:34.021Z,78.30
2022-11-22T09:27:35.844Z,161.00
2022-11-22T09:32:37.630Z,72.10
2022-11-22T09:37:39.362Z,70.20
2022-11-22T09:48:14.695Z,62.70
2022-11-22T09:53:22.318Z,61.40
2022-11-22T09:58:30.886Z,49.80
2022-11-22T10:03:46.113Z,44.70
2022-11-22T10:09:00.149Z,41.40
2022-11-22T10:14:22.435Z,40.40
2022-11-22T10:19:35.387Z,36.40
2022-11-22T10:24:37.132Z,30.60
2022-11-22T10:29:51.500Z,30.10
2022-11-22T10:35:02.164Z,25.50
2022-11-22T10:40:49.640Z,32.60
2022-11-22T10:46:09.731Z,29.20
2022-11-22T10:51:39.805Z,26.40
2022-11-22T10:57:15.041Z,30.90
2022-11-22T11:02:25.897Z,26.50
2022-11-22T11:07:28.531Z,28.60
2022-11-22T11:13:08.905Z,38.50
2022-11-22T11:18:19.434Z,30.20
2022-11-22T11:23:21.186Z,39.90
2022-11-22T11:28:27.103Z,35.30
2022-11-22T11:33:35.032Z,35.10
2022-11-22T11:38:50.753Z,53.50
2022-11-22T11:43:54.994Z,35.30
2022-11-22T11:49:15.941Z,33.80
2022-11-22T11:54:20.657Z,34.40
2022-11-22T11:59:30.162Z,45.30
2022-11-22T12:04:36.415Z,31.80
2022-11-22T12:09:45.408Z,41.60
2022-11-22T12:15:10.930Z,42.90
2022-11-22T12:20:21.857Z,45.50
2022-11-22T12:25:33.807Z,57.90
2022-11-22T12:30:41.184Z,82.10
2022-11-22T12:35:45.002Z,70.40
2022-11-22T12:40:52.308Z,81.50
2022-11-22T12:45:58.079Z,59.30
2022-11-22T12:51:07.575Z,54.10
2022-11-22T12:56:28.410Z,38.10
2022-11-22T13:01:48.501Z,32.80
2022-11-22T13:07:01.802Z,36.40
2022-11-22T13:12:09.800Z,37.90
2022-11-22T13:17:14.962Z,51.10
2022-11-22T13:22:25.790Z,57.40
2022-11-22T13:27:37.295Z,47.00
2022-11-22T13:37:56.820Z,54.90
2022-11-22T13:43:17.884Z,43.40
2022-11-22T13:48:39.108Z,49.50
2022-11-22T13:53:46.089Z,60.30
2022-11-22T13:58:51.183Z,63.40
2022-11-22T14:03:53.532Z,62.20
2022-11-22T14:09:16.851Z,60.80
2022-11-22T14:14:54.018Z,52.70
2022-11-22T14:20:18.638Z,49.00
2022-11-22T14:25:42.733Z,56.20
2022-11-22T14:30:54.239Z,68.20
2022-11-22T14:36:08.166Z,59.10
2022-11-22T14:41:28.109Z,60.20
2022-11-22T14:46:52.904Z,64.90
2022-11-22T14:51:57.567Z,59.10
2022-11-22T14:57:07.123Z,61.80
2022-11-22T15:02:46.686Z,55.40
2022-11-22T15:09:16.272Z,67.20
2022-11-22T15:13:44.520Z,69.40
2022-11-22T15:57:55.343Z,92.80
2022-11-22T16:03:01.805Z,101.60
2022-11-22T16:08:05.675Z,95.90
2022-11-22T16:13:34.892Z,93.90
2022-11-22T16:18:36.679Z,94.50
2022-11-22T16:23:43.045Z,90.10
2022-11-22T16:28:46.548Z,82.60
2022-11-22T16:33:48.640Z,88.00
2022-11-22T16:38:50.734Z,88.00
2022-11-22T16:44:01.223Z,64.60
2022-11-22T16:49:15.575Z,73.90
2022-11-22T16:54:19.697Z,63.40
2022-11-22T16:59:21.407Z,70.60
2022-11-22T17:04:26.243Z,86.20
2022-11-22T17:09:28.327Z,64.40
2022-11-22T17:14:30.636Z,71.30
2022-11-22T17:29:55.928Z,57.50
2022-11-22T17:34:57.666Z,70.90
2022-11-22T17:39:59.501Z,85.80
2022-11-22T17:45:01.281Z,66.40
2022-11-22T17:50:03.367Z,93.50
2022-11-22T17:55:09.394Z,106.10
2022-11-22T18:00:14.192Z,112.60
2022-11-22T18:05:15.984Z,123.60
2022-11-22T18:10:17.849Z,130.90
2022-11-22T18:15:19.612Z,90.60
2022-11-22T18:20:21.396Z,86.40
2022-11-22T18:25:23.170Z,84.10
2022-11-22T18:30:24.943Z,83.80
2022-11-22T18:35:27.614Z,70.90
2022-11-22T18:40:29.434Z,75.50
2022-11-22T18:45:33.565Z,75.50
2022-11-22T18:50:36.369Z,92.00
2022-11-22T18:55:38.248Z,87.80
2022-11-22T19:00:40.092Z,95.40
2022-11-22T19:05:42.006Z,102.90
2022-11-22T19:10:44.109Z,99.20
2022-11-22T19:15:46.689Z,108.70
2022-11-22T19:20:55.129Z,108.90
2022-11-22T19:25:57.903Z,122.20
2022-11-22T19:31:02.670Z,131.00
2022-11-22T19:36:07.699Z,138.20
2022-11-22T19:41:22.507Z,122.30
2022-11-22T19:46:25.512Z,126.20
2022-11-22T19:51:29.899Z,137.90
2022-11-22T19:56:34.399Z,138.10
2022-11-22T20:02:17.697Z,117.40
2022-11-22T20:07:25.881Z,119.90
2022-11-22T20:12:27.956Z,127.80
2022-11-22T20:17:30.952Z,124.50
2022-11-22T20:22:34.375Z,125.10
2022-11-22T20:27:36.196Z,167.50
2022-11-22T20:32:41.722Z,265.60
2022-11-22T20:37:43.595Z,194.10
2022-11-22T20:42:45.477Z,192.10
2022-11-22T20:47:47.252Z,171.40
2022-11-22T20:52:49.546Z,156.10
2022-11-22T20:57:51.321Z,133.70
2022-11-22T21:02:53.063Z,146.50
2022-11-22T21:07:54.975Z,141.70
2022-11-22T21:12:57.594Z,132.90
2022-11-22T21:18:23.661Z,155.70
2022-11-22T21:23:21.812Z,120.00
2022-11-22T21:28:23.576Z,136.40
2022-11-22T21:33:25.878Z,93.40
2022-11-22T21:38:31.112Z,85.70
2022-11-22T21:43:48.797Z,87.30
2022-11-22T21:48:52.615Z,110.50
2022-11-22T21:54:01.976Z,99.70
2022-11-22T21:59:03.951Z,92.80
2022-11-22T22:04:06.130Z,90.00
2022-11-22T22:09:08.835Z,77.60
2022-11-22T22:14:14.603Z,93.50
2022-11-22T22:19:44.954Z,71.70
2022-11-22T22:24:46.728Z,91.00
2022-11-22T22:29:48.610Z,84.10
2022-11-22T22:34:50.383Z,99.50
2022-11-22T22:39:52.367Z,82.70
2022-11-22T22:44:54.251Z,109.20
2022-11-22T22:49:56.024Z,153.00
2022-11-22T22:54:57.902Z,162.70
2022-11-22T22:59:59.680Z,123.00
2022-11-22T23:05:01.455Z,94.20
2022-11-22T23:10:03.247Z,89.10
2022-11-22T23:15:06.037Z,83.60
2022-11-22T23:20:08.120Z,73.40
2022-11-22T23:25:10.616Z,68.90
2022-11-22T23:36:19.505Z,67.30
2022-11-22T23:41:23.639Z,68.10
2022-11-22T23:46:28.089Z,71.30
2022-11-22T23:51:31.385Z,72.50
2022-11-22T23:56:34.940Z,70.00
